createdAt,value
2018-08-28T00:01:40.884Z,16.65
2018-08-28T00:04:09.425Z,16.66
2018-08-28T00:06:37.523Z,16.67
2018-08-28T00:09:06.008Z,16.65
2018-08-28T00:11:34.236Z,16.65
2018-08-28T00:14:02.924Z,16.65
2018-08-28T00:16:31.711Z,16.68
2018-08-28T00:19:00.091Z,16.68
2018-08-28T00:21:29.865Z,16.65
2018-08-28T00:23:58.570Z,16.63
2018-08-28T00:26:27.284Z,16.63
2018-08-28T00:28:55.741Z,16.67
2018-08-28T00:31:24.048Z,16.71
2018-08-28T00:33:52.691Z,16.72
2018-08-28T00:36:21.411Z,16.72
2018-08-28T00:38:49.865Z,16.72
2018-08-28T00:41:18.482Z,16.69
2018-08-28T00:43:47.413Z,16.70
2018-08-28T00:46:16.072Z,16.73
2018-08-28T00:48:44.367Z,16.74
2018-08-28T00:51:13.049Z,16.76
2018-08-28T00:53:41.937Z,16.76
2018-08-28T00:56:10.244Z,16.77
2018-08-28T00:58:39.092Z,16.79
2018-08-28T01:01:07.525Z,16.81
2018-08-28T01:03:35.963Z,16.81
2018-08-28T01:06:04.793Z,16.80
2018-08-28T01:08:33.416Z,16.81
2018-08-28T01:11:02.187Z,16.82
2018-08-28T01:13:30.811Z,16.84
2018-08-28T01:15:59.784Z,16.89
2018-08-28T01:18:29.321Z,16.89
2018-08-28T01:20:57.752Z,16.95
2018-08-28T01:23:26.482Z,16.97
2018-08-28T01:25:55.014Z,16.95
2018-08-28T01:28:23.886Z,16.94
2018-08-28T01:30:52.167Z,16.94
2018-08-28T01:33:20.672Z,16.96
2018-08-28T01:35:48.819Z,16.95
2018-08-28T01:38:17.224Z,16.94
2018-08-28T01:40:45.795Z,16.90
2018-08-28T01:43:19.924Z,16.90
2018-08-28T01:45:48.512Z,16.90
2018-08-28T01:48:17.164Z,16.91
2018-08-28T01:50:46.119Z,16.94
2018-08-28T01:53:14.723Z,16.94
2018-08-28T01:55:43.360Z,16.96
2018-08-28T01:58:11.785Z,16.96
2018-08-28T02:00:40.258Z,16.97
2018-08-28T02:03:08.896Z,16.98
2018-08-28T02:05:37.842Z,16.98
2018-08-28T02:08:06.812Z,16.99
2018-08-28T02:10:35.619Z,16.99
2018-08-28T02:13:04.149Z,17.01
2018-08-28T02:15:33.012Z,17.01
2018-08-28T02:18:19.583Z,17.01
2018-08-28T02:21:06.260Z,17.02
2018-08-28T02:23:53.368Z,17.04
2018-08-28T02:26:39.839Z,17.05
2018-08-28T02:29:26.684Z,17.06
2018-08-28T02:32:13.356Z,17.06
2018-08-28T02:35:00.095Z,17.07
2018-08-28T02:37:47.852Z,17.07
2018-08-28T02:40:16.675Z,17.04
2018-08-28T02:42:45.279Z,17.04
2018-08-28T02:45:13.543Z,17.06
2018-08-28T02:47:42.448Z,17.07
2018-08-28T02:50:10.897Z,17.09
2018-08-28T02:52:39.896Z,17.11
2018-08-28T02:55:08.512Z,17.12
2018-08-28T02:57:37.233Z,17.10
2018-08-28T03:00:05.843Z,17.09
2018-08-28T03:02:34.759Z,17.10
2018-08-28T03:05:03.949Z,17.11
2018-08-28T03:07:32.399Z,17.10
2018-08-28T03:10:01.219Z,17.09
2018-08-28T03:12:30.277Z,17.08
2018-08-28T03:14:58.884Z,17.07
2018-08-28T03:17:27.789Z,17.02
2018-08-28T03:19:56.663Z,16.97
2018-08-28T03:22:25.244Z,16.93
2018-08-28T03:24:53.487Z,16.90
2018-08-28T03:27:21.689Z,16.89
2018-08-28T03:29:50.128Z,16.88
2018-08-28T03:32:18.580Z,16.85
2018-08-28T03:34:46.895Z,16.89
2018-08-28T03:37:15.229Z,16.89
2018-08-28T03:39:43.600Z,16.88
2018-08-28T03:42:11.717Z,16.85
2018-08-28T03:44:40.209Z,16.83
2018-08-28T03:47:08.993Z,16.82
2018-08-28T03:49:37.684Z,16.81
2018-08-28T03:52:06.137Z,16.81
2018-08-28T03:54:34.828Z,16.80
2018-08-28T03:57:03.871Z,16.78
2018-08-28T03:59:31.962Z,16.77
2018-08-28T04:02:01.212Z,16.77
2018-08-28T04:04:29.979Z,16.78
2018-08-28T04:06:58.084Z,16.75
2018-08-28T04:09:26.206Z,16.76
2018-08-28T04:11:55.167Z,16.75
2018-08-28T04:14:23.561Z,16.73
2018-08-28T04:16:52.376Z,16.70
2018-08-28T04:19:20.924Z,16.68
2018-08-28T04:21:49.372Z,16.64
2018-08-28T04:24:18.139Z,16.64
2018-08-28T04:26:46.537Z,16.64
2018-08-28T04:29:14.681Z,16.64
2018-08-28T04:31:43.012Z,16.63
2018-08-28T04:34:11.952Z,16.62
2018-08-28T04:36:40.076Z,16.62
2018-08-28T04:39:08.671Z,16.61
2018-08-28T04:41:36.988Z,16.61
2018-08-28T04:44:05.090Z,16.62
2018-08-28T04:46:33.524Z,16.60
2018-08-28T04:49:01.741Z,16.60
2018-08-28T04:51:30.455Z,16.59
2018-08-28T04:53:59.412Z,16.60
2018-08-28T04:56:28.093Z,16.61
2018-08-28T04:58:56.763Z,16.63
2018-08-28T05:01:24.859Z,16.65
2018-08-28T05:03:52.952Z,16.69
2018-08-28T05:06:21.387Z,16.72
2018-08-28T05:08:49.835Z,16.71
2018-08-28T05:11:18.499Z,16.73
2018-08-28T05:13:47.232Z,16.74
2018-08-28T05:16:15.692Z,16.75
2018-08-28T05:18:44.125Z,16.78
2018-08-28T05:21:12.547Z,16.79
2018-08-28T05:23:41.288Z,16.81
2018-08-28T05:26:10.020Z,16.84
2018-08-28T05:28:38.916Z,16.87
2018-08-28T05:31:07.252Z,16.89
2018-08-28T05:33:36.309Z,16.92
2018-08-28T05:36:04.619Z,16.95
2018-08-28T05:38:33.036Z,17.00
2018-08-28T05:41:01.464Z,17.04
2018-08-28T05:43:30.625Z,17.08
2018-08-28T05:45:59.241Z,17.10
2018-08-28T05:48:27.350Z,17.11
2018-08-28T05:50:55.436Z,17.14
2018-08-28T05:53:23.833Z,17.18
2018-08-28T05:55:52.311Z,17.20
2018-08-28T05:58:20.863Z,17.28
2018-08-28T06:00:49.491Z,17.32
2018-08-28T06:03:18.322Z,17.35
2018-08-28T06:05:46.848Z,17.37
2018-08-28T06:08:15.055Z,17.39
2018-08-28T06:10:43.784Z,17.42
2018-08-28T06:13:12.239Z,17.43
2018-08-28T06:15:40.673Z,17.45
2018-08-28T06:18:09.401Z,17.47
2018-08-28T06:20:38.447Z,17.53
2018-08-28T06:23:07.000Z,17.53
2018-08-28T06:25:35.519Z,17.57
2018-08-28T06:28:04.253Z,17.62
2018-08-28T06:30:32.359Z,17.65
2018-08-28T06:33:00.779Z,17.69
2018-08-28T06:35:30.675Z,17.77
2018-08-28T06:37:59.416Z,17.82
2018-08-28T06:40:27.865Z,17.89
2018-08-28T06:42:56.514Z,17.96
2018-08-28T06:45:24.958Z,18.00
2018-08-28T06:47:53.429Z,18.02
2018-08-28T06:50:21.565Z,18.05
2018-08-28T06:52:50.269Z,18.12
2018-08-28T06:55:18.982Z,18.18
2018-08-28T06:57:47.392Z,18.21
2018-08-28T07:00:15.890Z,18.26
2018-08-28T07:02:44.611Z,18.42
2018-08-28T07:05:13.035Z,18.61
2018-08-28T07:07:42.014Z,18.80
2018-08-28T07:10:10.544Z,18.96
2018-08-28T07:12:39.505Z,19.08
2018-08-28T07:15:07.640Z,19.18
2018-08-28T07:17:36.368Z,19.28
2018-08-28T07:20:04.979Z,19.46
2018-08-28T07:22:33.377Z,19.53
2018-08-28T07:25:02.129Z,19.57
2018-08-28T07:27:30.927Z,19.63
2018-08-28T07:29:59.145Z,19.72
2018-08-28T07:32:27.580Z,19.79
2018-08-28T07:34:56.472Z,19.90
2018-08-28T07:37:24.588Z,19.98
2018-08-28T07:39:53.145Z,20.11
2018-08-28T07:42:21.279Z,20.19
2018-08-28T07:44:49.727Z,20.27
2018-08-28T07:47:18.116Z,20.29
2018-08-28T07:49:46.832Z,20.26
2018-08-28T07:52:15.451Z,20.33
2018-08-28T07:54:44.127Z,20.42
2018-08-28T07:57:12.603Z,20.56
2018-08-28T07:59:40.721Z,20.68
2018-08-28T08:02:09.475Z,20.63
2018-08-28T08:04:37.980Z,20.56
2018-08-28T08:07:07.284Z,20.57
2018-08-28T08:09:36.039Z,20.54
2018-08-28T08:12:04.400Z,20.50
2018-08-28T08:14:32.873Z,20.55
2018-08-28T08:17:02.092Z,20.57
2018-08-28T08:19:30.722Z,20.65
2018-08-28T08:21:59.561Z,20.70
2018-08-28T08:24:27.948Z,20.88
2018-08-28T08:26:56.701Z,21.07
2018-08-28T08:29:25.422Z,21.12
2018-08-28T08:31:53.912Z,21.13
2018-08-28T08:34:22.456Z,21.24
2018-08-28T08:36:50.608Z,21.36
2018-08-28T08:39:18.963Z,21.51
2018-08-28T08:41:47.693Z,21.64
2018-08-28T08:44:16.124Z,21.67
2018-08-28T08:46:44.535Z,21.80
2018-08-28T08:49:12.832Z,21.94
2018-08-28T08:51:40.945Z,22.01
2018-08-28T08:54:09.636Z,22.17
2018-08-28T08:56:37.747Z,22.29
2018-08-28T08:59:06.714Z,22.34
2018-08-28T09:01:35.632Z,22.33
2018-08-28T09:04:04.383Z,22.33
2018-08-28T09:06:33.021Z,22.43
2018-08-28T09:09:02.069Z,22.50
2018-08-28T09:11:30.892Z,22.57
2018-08-28T09:13:59.423Z,22.71
2018-08-28T09:16:27.861Z,22.93
2018-08-28T09:18:56.599Z,23.20
2018-08-28T09:21:25.095Z,23.49
2018-08-28T09:23:53.884Z,23.62
2018-08-28T09:26:22.395Z,23.81
2018-08-28T09:28:50.844Z,23.99
2018-08-28T09:31:19.549Z,24.00
2018-08-28T09:33:47.991Z,24.09
2018-08-28T09:36:16.592Z,24.22
2018-08-28T09:38:45.106Z,24.50
2018-08-28T09:41:13.789Z,24.75
2018-08-28T09:43:42.279Z,24.90
2018-08-28T09:46:10.870Z,25.00
2018-08-28T09:48:39.541Z,25.14
2018-08-28T09:51:08.252Z,25.19
2018-08-28T09:53:36.773Z,25.12
2018-08-28T09:56:05.948Z,24.96
2018-08-28T09:58:34.103Z,24.78
2018-08-28T10:01:08.240Z,24.62
2018-08-28T10:03:37.041Z,24.52
2018-08-28T10:06:06.078Z,24.56
2018-08-28T10:08:34.493Z,24.85
2018-08-28T10:11:03.019Z,25.19
2018-08-28T10:13:31.896Z,25.32
2018-08-28T10:16:00.013Z,25.29
2018-08-28T10:18:28.188Z,25.10
2018-08-28T10:20:56.305Z,24.96
2018-08-28T10:23:24.832Z,24.69
2018-08-28T10:25:53.297Z,24.37
2018-08-28T10:28:22.172Z,24.03
2018-08-28T10:30:51.073Z,23.77
2018-08-28T10:33:19.304Z,23.65
2018-08-28T10:35:48.031Z,23.58
2018-08-28T10:38:16.690Z,23.48
2018-08-28T10:40:45.363Z,23.36
2018-08-28T10:43:13.777Z,23.33
2018-08-28T10:45:42.794Z,23.30
2018-08-28T10:48:10.904Z,23.27
2018-08-28T10:50:38.999Z,23.25
2018-08-28T10:53:07.431Z,23.21
2018-08-28T10:55:36.199Z,23.20
2018-08-28T10:58:04.628Z,23.20
2018-08-28T11:00:32.865Z,23.21
2018-08-28T11:03:01.306Z,23.16
2018-08-28T11:05:30.718Z,23.07
2018-08-28T11:07:58.832Z,22.98
2018-08-28T11:10:27.280Z,22.86
2018-08-28T11:12:55.975Z,22.78
2018-08-28T11:15:24.333Z,22.78
2018-08-28T11:17:53.267Z,22.78
2018-08-28T11:20:22.087Z,22.81
2018-08-28T11:22:50.592Z,22.82
2018-08-28T11:25:19.472Z,22.85
2018-08-28T11:27:47.864Z,22.93
2018-08-28T11:30:16.009Z,22.99
2018-08-28T11:32:44.878Z,23.08
2018-08-28T11:35:13.328Z,23.14
2018-08-28T11:37:42.231Z,23.14
2018-08-28T11:40:10.609Z,23.13
2018-08-28T11:42:39.283Z,23.11
2018-08-28T11:45:07.494Z,23.14
2018-08-28T11:47:36.091Z,23.14
2018-08-28T11:50:04.434Z,23.10
2018-08-28T11:52:32.853Z,22.96
2018-08-28T11:55:01.218Z,22.79
2018-08-28T11:57:31.588Z,22.74
2018-08-28T12:00:00.141Z,22.70
2018-08-28T12:07:23.358Z,22.71
2018-08-28T12:09:52.100Z,22.79
2018-08-28T12:12:21.087Z,22.78
2018-08-28T12:14:49.715Z,22.74
2018-08-28T12:17:18.483Z,22.71
2018-08-28T12:19:59.832Z,22.71
2018-08-28T12:22:40.740Z,22.70
2018-08-28T12:25:21.477Z,22.72
2018-08-28T12:28:02.553Z,22.80
2018-08-28T12:30:43.435Z,22.87
2018-08-28T12:33:23.875Z,22.97
2018-08-28T12:36:04.820Z,23.04
2018-08-28T12:38:45.719Z,23.08
2018-08-28T12:41:26.520Z,23.16
2018-08-28T12:44:07.021Z,23.28
2018-08-28T12:46:47.705Z,23.44
2018-08-28T12:49:16.069Z,23.66
2018-08-28T12:51:44.519Z,23.84
2018-08-28T12:54:13.623Z,23.93
2018-08-28T12:56:42.523Z,24.09
2018-08-28T12:59:11.016Z,24.25
2018-08-28T13:01:39.372Z,24.45
2018-08-28T13:04:07.796Z,24.54
2018-08-28T13:06:36.396Z,24.57
2018-08-28T13:09:06.223Z,24.61
2018-08-28T13:11:34.348Z,24.66
2018-08-28T13:14:03.056Z,24.72
2018-08-28T13:16:31.960Z,24.77
2018-08-28T13:19:00.087Z,24.82
2018-08-28T13:21:28.781Z,24.86
2018-08-28T13:23:57.400Z,24.93
2018-08-28T13:26:26.325Z,24.95
2018-08-28T13:28:54.785Z,24.87
2018-08-28T13:31:23.264Z,24.80
2018-08-28T13:33:51.851Z,24.59
2018-08-28T13:36:20.820Z,24.46
2018-08-28T13:38:49.399Z,24.51
2018-08-28T13:41:17.513Z,24.62
2018-08-28T13:43:46.418Z,24.77
2018-08-28T13:46:14.890Z,24.99
2018-08-28T13:48:43.877Z,25.22
2018-08-28T13:51:12.128Z,25.43
2018-08-28T13:53:41.053Z,25.60
2018-08-28T13:56:09.860Z,25.72
2018-08-28T13:58:38.240Z,25.81
2018-08-28T14:01:19.013Z,26.04
2018-08-28T14:03:59.712Z,26.42
2018-08-28T14:06:40.372Z,26.87
2018-08-28T14:09:08.868Z,27.13
2018-08-28T14:11:37.589Z,27.18
2018-08-28T14:14:06.187Z,27.14
2018-08-28T14:16:35.001Z,27.16
2018-08-28T14:19:03.337Z,27.32
2018-08-28T14:21:33.355Z,27.43
2018-08-28T14:24:01.690Z,27.39
2018-08-28T14:26:30.120Z,27.31
2018-08-28T14:28:59.133Z,27.27
2018-08-28T14:31:28.007Z,27.15
2018-08-28T14:33:56.304Z,26.96
2018-08-28T14:36:24.975Z,26.70
2018-08-28T14:38:53.524Z,26.47
2018-08-28T14:41:21.944Z,26.25
2018-08-28T14:43:50.367Z,26.05
2018-08-28T14:46:18.667Z,25.94
2018-08-28T14:48:47.331Z,25.81
2018-08-28T14:51:15.960Z,25.72
2018-08-28T14:53:44.945Z,25.66
2018-08-28T14:56:13.776Z,25.63
2018-08-28T14:58:42.731Z,25.71
2018-08-28T15:01:11.716Z,25.75
2018-08-28T15:03:40.689Z,25.79
2018-08-28T15:06:09.641Z,25.86
2018-08-28T15:08:38.601Z,25.94
2018-08-28T15:11:07.484Z,25.93
2018-08-28T15:13:36.409Z,25.91
2018-08-28T15:16:04.872Z,25.68
2018-08-28T15:18:33.829Z,25.40
2018-08-28T15:21:02.704Z,25.27
2018-08-28T15:23:31.960Z,25.22
2018-08-28T15:26:02.927Z,25.05
2018-08-28T15:28:32.034Z,24.94
2018-08-28T15:31:00.732Z,24.91
2018-08-28T15:33:28.831Z,24.97
2018-08-28T15:35:57.557Z,24.99
2018-08-28T15:38:25.992Z,24.96
2018-08-28T15:40:54.524Z,24.94
2018-08-28T15:43:22.955Z,24.92
2018-08-28T15:45:51.452Z,24.91
2018-08-28T15:48:19.983Z,24.85
2018-08-28T15:50:48.856Z,24.74
2018-08-28T15:53:17.330Z,24.68
2018-08-28T15:55:45.933Z,24.70
2018-08-28T15:58:14.719Z,24.74
2018-08-28T16:00:43.112Z,24.80
2018-08-28T16:03:11.704Z,24.83
2018-08-28T16:05:39.815Z,24.84
2018-08-28T16:08:08.363Z,24.85
2018-08-28T16:10:37.183Z,24.86
2018-08-28T16:13:05.560Z,24.85
2018-08-28T16:15:34.065Z,24.81
2018-08-28T16:18:02.978Z,24.77
2018-08-28T16:20:32.089Z,24.75
2018-08-28T16:23:03.137Z,24.72
2018-08-28T16:25:32.300Z,24.67
2018-08-28T16:28:01.241Z,24.66
2018-08-28T16:30:29.873Z,24.65
2018-08-28T16:32:58.312Z,24.57
2018-08-28T16:35:26.804Z,24.52
2018-08-28T16:37:55.243Z,24.48
2018-08-28T16:40:23.757Z,24.45
2018-08-28T16:42:52.296Z,24.39
2018-08-28T16:45:20.861Z,24.29
2018-08-28T16:47:49.790Z,24.21
2018-08-28T16:50:18.859Z,24.23
2018-08-28T16:52:47.735Z,24.24
2018-08-28T16:55:16.061Z,24.20
2018-08-28T16:57:44.673Z,24.19
2018-08-28T17:00:13.131Z,24.16
2018-08-28T17:02:41.543Z,24.09
2018-08-28T17:05:10.202Z,23.95
2018-08-28T17:07:38.620Z,23.85
2018-08-28T17:10:07.285Z,23.78
2018-08-28T17:12:36.247Z,23.66
2018-08-28T17:15:04.999Z,23.54
2018-08-28T17:17:40.476Z,23.47
2018-08-28T17:20:09.067Z,23.46
2018-08-28T17:22:37.771Z,23.50
2018-08-28T17:25:06.254Z,23.50
2018-08-28T17:27:35.175Z,23.50
2018-08-28T17:30:04.172Z,23.49
2018-08-28T17:32:32.586Z,23.48
2018-08-28T17:35:01.316Z,23.49
2018-08-28T17:42:57.050Z,23.33
2018-08-28T17:45:25.704Z,23.28
2018-08-28T18:22:30.174Z,22.23
2018-08-28T18:25:00.226Z,22.15
2018-08-28T18:27:28.701Z,22.08
2018-08-28T18:29:57.149Z,22.03
2018-08-28T18:32:25.263Z,21.97
2018-08-28T18:34:53.682Z,21.90
2018-08-28T18:37:22.150Z,21.82
2018-08-28T18:39:51.422Z,21.72
2018-08-28T18:42:20.170Z,21.64
2018-08-28T18:44:48.272Z,21.54
2018-08-28T18:47:17.195Z,21.45
2018-08-28T18:49:45.953Z,21.36
2018-08-28T18:52:14.400Z,21.26
2018-08-28T18:57:36.693Z,20.99
2018-08-28T19:00:05.217Z,20.86
2018-08-28T19:02:34.156Z,20.82
2018-08-28T19:05:02.610Z,20.75
2018-08-28T19:07:32.472Z,20.70
2018-08-28T19:10:01.342Z,20.64
2018-08-28T19:12:30.213Z,20.56
2018-08-28T19:14:58.582Z,20.48
2018-08-28T19:17:26.977Z,20.41
2018-08-28T19:19:55.541Z,20.37
2018-08-28T19:22:24.157Z,20.36
2018-08-28T19:24:52.581Z,20.32
2018-08-28T19:27:21.481Z,20.30
2018-08-28T19:29:49.877Z,20.27
2018-08-28T19:32:18.321Z,20.20
2018-08-28T19:40:29.060Z,20.00
2018-08-28T19:42:57.797Z,19.98
2018-08-28T19:45:26.223Z,19.96
2018-08-28T19:47:56.298Z,19.95
2018-08-28T19:50:24.833Z,19.93
2018-08-28T19:52:53.269Z,19.90
2018-08-28T19:55:21.713Z,19.86
2018-08-28T19:57:49.890Z,19.81
2018-08-28T20:00:18.377Z,19.77
2018-08-28T20:02:46.789Z,19.74
2018-08-28T20:05:15.413Z,19.73
2018-08-28T20:07:43.959Z,19.71
2018-08-28T20:10:12.380Z,19.70
2018-08-28T20:12:40.493Z,19.66
2018-08-28T20:15:08.612Z,19.61
2018-08-28T20:17:37.585Z,19.54
2018-08-28T20:22:33.945Z,19.37
2018-08-28T20:25:02.438Z,19.29
2018-08-28T20:27:30.541Z,19.23
2018-08-28T20:29:59.290Z,19.16
2018-08-28T20:32:28.216Z,19.03
2018-08-28T20:34:56.658Z,18.94
2018-08-28T20:37:25.447Z,18.90
2018-08-28T20:39:53.994Z,18.92
2018-08-28T20:42:22.634Z,18.90
2018-08-28T20:44:51.329Z,18.89
2018-08-28T20:47:19.777Z,18.91
2018-08-28T20:49:48.518Z,18.90
2018-08-28T20:52:17.261Z,18.86
2018-08-28T20:54:45.641Z,18.81
2018-08-28T20:57:14.731Z,18.73
2018-08-28T20:59:43.152Z,18.75
2018-08-28T21:02:11.811Z,18.68
2018-08-28T21:04:40.665Z,18.64
2018-08-28T21:07:09.156Z,18.59
2018-08-28T21:09:38.026Z,18.60
2018-08-28T21:12:06.367Z,18.62
2018-08-28T21:14:34.852Z,18.62
2018-08-28T21:17:03.635Z,18.57
2018-08-28T21:19:33.145Z,18.57
2018-08-28T21:22:01.255Z,18.55
2018-08-28T21:24:29.894Z,18.53
2018-08-28T21:26:58.530Z,18.45
2018-08-28T21:29:26.848Z,18.40
2018-08-28T21:31:55.737Z,18.36
2018-08-28T21:34:24.109Z,18.33
2018-08-28T21:36:53.170Z,18.31
2018-08-28T21:39:21.605Z,18.28
2018-08-28T21:41:49.708Z,18.26
2018-08-28T21:44:18.413Z,18.18
2018-08-28T21:46:46.906Z,18.11
2018-08-28T21:49:15.224Z,18.06
2018-08-28T21:51:44.094Z,18.03
2018-08-28T21:54:12.320Z,18.02
2018-08-28T21:56:40.582Z,17.99
2018-08-28T21:59:09.071Z,17.92
2018-08-28T22:01:37.829Z,17.87
2018-08-28T22:04:06.537Z,17.77
2018-08-28T22:06:40.454Z,17.74
2018-08-28T22:09:09.477Z,17.67
2018-08-28T22:11:38.161Z,17.59
2018-08-28T22:14:06.605Z,17.53
2018-08-28T22:16:35.073Z,17.50
2018-08-28T22:19:03.277Z,17.46
2018-08-28T22:21:33.165Z,17.44
2018-08-28T22:24:01.824Z,17.41
2018-08-28T22:26:30.220Z,17.41
2018-08-28T22:28:58.682Z,17.43
2018-08-28T22:31:27.169Z,17.41
2018-08-28T22:33:55.625Z,17.40
2018-08-28T22:36:24.055Z,17.38
2018-08-28T22:38:52.741Z,17.38
2018-08-28T22:41:21.497Z,17.38
2018-08-28T22:43:49.942Z,17.40
2018-08-28T22:46:18.630Z,17.39
2018-08-28T22:48:47.084Z,17.36
2018-08-28T22:51:15.497Z,17.30
2018-08-28T22:53:43.863Z,17.24
2018-08-28T22:56:12.421Z,17.18
2018-08-28T22:58:41.054Z,17.14
2018-08-28T23:01:09.412Z,17.10
2018-08-28T23:03:38.133Z,17.08
2018-08-28T23:06:06.732Z,17.06
2018-08-28T23:08:35.181Z,17.05
2018-08-28T23:11:03.502Z,17.03
2018-08-28T23:13:33.137Z,17.01
2018-08-28T23:16:02.508Z,16.99
2018-08-28T23:18:30.952Z,16.94
2018-08-28T23:20:59.464Z,16.90
2018-08-28T23:23:27.589Z,16.86
2018-08-28T23:25:56.093Z,16.87
2018-08-28T23:28:24.782Z,16.85
2018-08-28T23:30:53.237Z,16.83
2018-08-28T23:33:21.945Z,16.82
2018-08-28T23:35:50.085Z,16.83
2018-08-28T23:38:19.104Z,16.86
2018-08-28T23:40:47.509Z,16.86
2018-08-28T23:43:16.004Z,16.83
2018-08-28T23:45:45.010Z,16.78
2018-08-28T23:48:13.105Z,16.74
2018-08-28T23:50:42.113Z,16.68
2018-08-28T23:53:10.879Z,16.64
2018-08-28T23:55:39.325Z,16.59
2018-08-28T23:58:07.895Z,16.53
